Need Help? Talk to an Expert info@thzeal.com

Home

>

homepage

Homepage

CIK Ticker Name Date Form
1822479 SHC Sotera Health Co 2026-05-05 07:13:20 8-K |    |  
1084147 TALCOTT RESOLUTION LIFE & ANNUITY INSURANCE CO SEPARATE ACCOUNT SEVEN 2026-05-05 07:13:20 497J
1084147 TALCOTT RESOLUTION LIFE & ANNUITY INSURANCE CO SEPARATE ACCOUNT SEVEN 2026-05-05 07:13:13 497J
895764 TALCOTT RESOLUTION LIFE & ANNUITY INSURANCE CO SEPARATE ACCOUNT ONE 2026-05-05 07:13:06 497J
900043 TALCOTT RESOLUTION LIFE & ANNUITY INSURANCE CO SEPARATE ACCOUNT TEN 2026-05-05 07:12:59 497J
1084147 TALCOTT RESOLUTION LIFE & ANNUITY INSURANCE CO SEPARATE ACCOUNT SEVEN 2026-05-05 07:11:30 497J
925997 TALCOTT RESOLUTION LIFE & ANNUITY INSUR CO SEPARATE ACCOUNT THREE 2026-05-05 07:11:23 497J
925997 TALCOTT RESOLUTION LIFE & ANNUITY INSUR CO SEPARATE ACCOUNT THREE 2026-05-05 07:11:16 497J
1084147 TALCOTT RESOLUTION LIFE & ANNUITY INSURANCE CO SEPARATE ACCOUNT SEVEN 2026-05-05 07:11:09 497J
1084147 TALCOTT RESOLUTION LIFE & ANNUITY INSURANCE CO SEPARATE ACCOUNT SEVEN 2026-05-05 07:11:01 497J
2011053 SUUN POWERBANK Corp 2026-05-05 07:10:09 6-K
1552275 SUN Sunoco LP 2026-05-05 07:09:53 8-K |    |  
2089661 SUNC SunocoCorp LLC 2026-05-05 07:09:41 8-K |    |  
895764 TALCOTT RESOLUTION LIFE & ANNUITY INSURANCE CO SEPARATE ACCOUNT ONE 2026-05-05 07:09:24 497J
1084147 TALCOTT RESOLUTION LIFE & ANNUITY INSURANCE CO SEPARATE ACCOUNT SEVEN 2026-05-05 07:09:15 497J
895764 TALCOTT RESOLUTION LIFE & ANNUITY INSURANCE CO SEPARATE ACCOUNT ONE 2026-05-05 07:09:09 497J
895764 TALCOTT RESOLUTION LIFE & ANNUITY INSURANCE CO SEPARATE ACCOUNT ONE 2026-05-05 07:09:01 497J
1084147 TALCOTT RESOLUTION LIFE & ANNUITY INSURANCE CO SEPARATE ACCOUNT SEVEN 2026-05-05 07:08:52 497J
763744 LCII LCI INDUSTRIES 2026-05-05 07:08:14 8-K |    |  
1709048 GFS GLOBALFOUNDRIES Inc. 2026-05-05 07:08:09 6-K
1821159 EVGOW EVgo Inc. 2026-05-05 07:07:38 10-Q |    |  
1725255 AHCO AdaptHealth Corp. 2026-05-05 07:07:25 8-K |    |  
1075124 TMSOF THOMSON REUTERS CORP /CAN/ 2026-05-05 07:07:25 6-K
1650258 Avanda Investment Management Pte. Ltd. 2026-05-05 07:07:14 13F-HR
925999 TALCOTT RESOLUTION LIFE INSURANCE CO SEPARATE ACCOUNT THREE 2026-05-05 07:07:01 497J
1709048 GFS GLOBALFOUNDRIES Inc. 2026-05-05 07:06:56 6-K
796330 TALCOTT RESOLUTION LIFE INSURANCE CO SEPARATE ACCOUNT TWO 2026-05-05 07:06:55 497J
796330 TALCOTT RESOLUTION LIFE INSURANCE CO SEPARATE ACCOUNT TWO 2026-05-05 07:06:49 497J
1590560 QURE uniQure N.V. 2026-05-05 07:06:49 8-K |    |  
1393434 OCUL OCULAR THERAPEUTIX, INC 2026-05-05 07:06:45 8-K |    |  
809013 TALCOTT RESOLUTION LIFE INSURANCE CO SEPARATE ACCOUNT SEVEN 2026-05-05 07:06:43 497J
730272 RGEN REPLIGEN CORP 2026-05-05 07:06:38 8-K |    |  
809013 TALCOTT RESOLUTION LIFE INSURANCE CO SEPARATE ACCOUNT SEVEN 2026-05-05 07:06:37 497J
1582961 DOCN DigitalOcean Holdings, Inc. 2026-05-05 07:05:56 8-K |    |  
1641614 PMTS CPI Card Group Inc. 2026-05-05 07:05:54 10-Q |    |  
1590750 VRDN Viridian Therapeutics, Inc.\DE 2026-05-05 07:05:45 10-Q |    |  
1520262 ALKS Alkermes plc. 2026-05-05 07:05:17 8-K |    |  
1590750 VRDN Viridian Therapeutics, Inc.\DE 2026-05-05 07:05:07 8-K |    |  
1609809 MCRB Seres Therapeutics, Inc. 2026-05-05 07:05:06 8-K |    |  
1661998 QTTB Q32 Bio Inc. 2026-05-05 07:04:51 8-K |    |  
1024478 ROK ROCKWELL AUTOMATION, INC 2026-05-05 07:04:32 8-K |    |  
1821159 EVGOW EVgo Inc. 2026-05-05 07:04:22 8-K |    |  
821581 TALCOTT RESOLUTION LIFE INSURANCE CO SEPARATE ACCOUNT TEN 2026-05-05 07:04:16 497J
809013 TALCOTT RESOLUTION LIFE INSURANCE CO SEPARATE ACCOUNT SEVEN 2026-05-05 07:04:10 497
796330 TALCOTT RESOLUTION LIFE INSURANCE CO SEPARATE ACCOUNT TWO 2026-05-05 07:04:04 497J
821581 TALCOTT RESOLUTION LIFE INSURANCE CO SEPARATE ACCOUNT TEN 2026-05-05 07:03:57 497J
796330 TALCOTT RESOLUTION LIFE INSURANCE CO SEPARATE ACCOUNT TWO 2026-05-05 07:03:50 497J
1789940 FWRG First Watch Restaurant Group, Inc. 2026-05-05 07:03:47 10-Q |    |  
884624 OFIX Orthofix Medical Inc. 2026-05-05 07:03:46 10-Q |    |  
1478242 IQV IQVIA HOLDINGS INC. 2026-05-05 07:03:40 8-K |    |  
4904 AEP AMERICAN ELECTRIC POWER CO INC 2026-05-05 07:03:37 8-K |    |  
1633917 PYPL PayPal Holdings, Inc. 2026-05-05 07:03:30 8-K |    |  
1650664 EDIT Editas Medicine, Inc. 2026-05-05 07:03:11 8-K |    |  
78003 PFE PFIZER INC 2026-05-05 07:03:03 10-Q |    |  
1522727 USAC USA Compression Partners, LP 2026-05-05 07:02:51 8-K |    |  
2075029 MASTERINVEST Kapitalanlage GmbH 2026-05-05 07:02:49 13F-HR
1121484 OIS OIL STATES INTERNATIONAL, INC 2026-05-05 07:02:46 8-K |    |  
1698535 NXE NexGen Energy Ltd. 2026-05-05 07:02:39 6-K
1451505 RIG Transocean Ltd. 2026-05-05 07:02:37 DEFA14A
1789940 FWRG First Watch Restaurant Group, Inc. 2026-05-05 07:02:25 8-K |    |  
45947 TALCOTT RESOLUTION LIFE INSURANCE CO 2026-05-05 07:02:20 497J
884624 OFIX Orthofix Medical Inc. 2026-05-05 07:02:16 8-K |    |  
45947 TALCOTT RESOLUTION LIFE INSURANCE CO 2026-05-05 07:02:14 497J
1524358 VAC MARRIOTT VACATIONS WORLDWIDE Corp 2026-05-05 07:02:13 8-K |    |  
45947 TALCOTT RESOLUTION LIFE INSURANCE CO 2026-05-05 07:02:08 497J
1164863 NPO Enpro Inc. 2026-05-05 07:02:07 8-K |    |  
45947 TALCOTT RESOLUTION LIFE INSURANCE CO 2026-05-05 07:02:01 497J
1901440 ULS UL Solutions Inc. 2026-05-05 07:02:00 8-K |    |  
1772016 BRBR BELLRING BRANDS, INC. 2026-05-05 07:01:56 8-K |    |  
45947 TALCOTT RESOLUTION LIFE INSURANCE CO 2026-05-05 07:01:55 497J
1845840 TSAT Telesat Corp 2026-05-05 07:01:53 6-K
45947 TALCOTT RESOLUTION LIFE INSURANCE CO 2026-05-05 07:01:47 497J
1521951 FBIZ FIRST BUSINESS FINANCIAL SERVICES, INC. 2026-05-05 07:01:44 8-K |    |  
1451505 RIG Transocean Ltd. 2026-05-05 07:01:43 8-K |    |  
78003 PFE PFIZER INC 2026-05-05 07:01:20 8-K |    |  
912892 GRPFF GRUPO TELEVISA, S.A.B. 2026-05-05 07:01:14 4
1907982 QBTS D-Wave Quantum Inc. 2026-05-05 07:01:14 8-K |    |  
1254386 FELTHEIMER JON 2026-05-05 07:01:14 4
2002473 BOW Bowhead Specialty Holdings Inc. 2026-05-05 07:01:05 8-K |    |  
1606498 AVNS AVANOS MEDICAL, INC. 2026-05-05 07:00:56 8-K |    |  
1633931 BLD TopBuild Corp 2026-05-05 07:00:51 10-Q |    |  
1845840 TSAT Telesat Corp 2026-05-05 07:00:41 6-K
893949 MD Pediatrix Medical Group, Inc. 2026-05-05 07:00:40 10-Q |    |  
2071778 FRMI Fermi Inc. 2026-05-05 07:00:37 8-K |    |  
2085177 QRED QuasarEdge Acquisition Corp 2026-05-05 07:00:33 8-K |    |  
897322 GILT GILAT SATELLITE NETWORKS LTD 2026-05-05 07:00:32 6-K
314808 VAL-WT Valaris Ltd 2026-05-05 07:00:32 8-K |    |  
926282 ADTN ADTRAN Holdings, Inc. 2026-05-05 07:00:27 8-K |    |  
1669811 DFIN Donnelley Financial Solutions, Inc. 2026-05-05 07:00:23 8-K |    |  
1551182 ETN Eaton Corp plc 2026-05-05 07:00:23 8-K |    |  
1641614 PMTS CPI Card Group Inc. 2026-05-05 07:00:18 8-K |    |  
913353 CIGI Colliers International Group Inc. 2026-05-05 07:00:17 6-K
1581178 EPRX EUPRAXIA PHARMACEUTICALS INC. 2026-05-05 07:00:15 6-K
1395942 OPLN OPENLANE, Inc. 2026-05-05 07:00:10 8-K |    |  
826723 VARIABLE ACCOUNT D OF UNION SECURITY INSURANCE CO 2026-05-05 07:00:05 497J
1333986 EQH-PC Equitable Holdings, Inc. 2026-05-05 06:59:58 425
823533 UNION SECURITY INSURANCE CO 2026-05-05 06:59:57 497J
826723 VARIABLE ACCOUNT D OF UNION SECURITY INSURANCE CO 2026-05-05 06:59:51 497J
823533 UNION SECURITY INSURANCE CO 2026-05-05 06:59:45 497J
826723 VARIABLE ACCOUNT D OF UNION SECURITY INSURANCE CO 2026-05-05 06:59:37 497J